Time;durP1;ratioP1;P1;durP2;ratioP2;P2;SDS_P1;SDS_P2;PMS_P1;PMS_P2;Temp;Humidity;BMP_temperature;BMP_pressure;BME280_temperature;BME280_humidity;BME280_pressure;Samples;Min_cycle;Max_cycle;Signal;HPM_P1;HPM_P2
2022/01/20 00:03:31;;;;;;;11.77;5.40;;;;;;;-2.72;73.80;98104.75;4679417;30;20425;-57
2022/01/20 00:08:36;;;;;;;13.05;5.78;;;;;;;-2.68;74.01;98111.16;4678777;30;20564;-59
2022/01/20 00:27:33;;;;;;;9.70;5.53;;;;;;;-2.65;74.23;98098.63;4683743;30;20046;-57
2022/01/20 00:35:19;;;;;;;11.15;6.15;;;;;;;-2.61;74.11;98073.94;4681830;30;20410;-59
2022/01/20 00:37:45;;;;;;;11.55;5.85;;;;;;;-2.58;74.01;98058.00;4682221;30;20070;-58
2022/01/20 00:40:12;;;;;;;9.10;4.75;;;;;;;-2.58;74.00;98055.41;4683494;30;20509;-57
2022/01/20 00:42:37;;;;;;;11.43;4.85;;;;;;;-2.53;74.18;98062.63;4683313;30;20101;-58
2022/01/20 00:45:04;;;;;;;9.20;5.03;;;;;;;-2.51;74.01;98053.66;4683392;30;20493;-60
2022/01/20 00:47:30;;;;;;;9.88;4.93;;;;;;;-2.54;73.78;98046.25;4681906;30;20148;-57
2022/01/20 00:49:55;;;;;;;8.85;4.93;;;;;;;-2.43;73.41;98057.94;4682073;30;20050;-59
2022/01/20 00:52:23;;;;;;;11.48;5.10;;;;;;;-2.39;74.00;98046.19;4681993;30;20056;-55
2022/01/20 00:54:49;;;;;;;11.07;4.45;;;;;;;-2.35;73.15;98039.66;4681567;30;20126;-58
2022/01/20 00:57:15;;;;;;;10.63;5.32;;;;;;;-2.40;73.70;98042.00;4681970;30;20054;-58
2022/01/20 00:59:41;;;;;;;11.10;4.75;;;;;;;-2.38;73.15;98032.25;4682955;30;20058;-60
2022/01/20 01:02:09;;;;;;;9.07;4.60;;;;;;;-2.47;73.83;98037.72;4683098;30;20050;-57
2022/01/20 01:04:36;;;;;;;9.07;4.97;;;;;;;-2.47;73.59;98037.72;4682775;30;20557;-58
2022/01/20 01:07:40;;;;;;;9.73;4.80;;;;;;;-2.44;73.63;98021.78;4680847;30;20159;-57
2022/01/20 01:09:50;;;;;;;9.55;5.07;;;;;;;-2.56;74.21;98032.69;4679876;30;20058;-58
2022/01/20 01:12:26;;;;;;;15.43;5.43;;;;;;;-2.56;74.58;98030.09;4681620;30;20045;-58
2022/01/20 01:14:53;;;;;;;7.75;4.63;;;;;;;-2.53;74.57;98027.13;4682469;30;20058;-59
2022/01/20 01:22:32;;;;;;;11.48;4.97;;;;;;;-2.36;73.71;98025.03;4681987;30;20419;-59
2022/01/20 01:24:58;;;;;;;8.40;4.47;;;;;;;-2.38;74.09;98016.66;4682865;30;20050;-58
2022/01/20 01:27:26;;;;;;;9.00;4.72;;;;;;;-2.40;74.50;98025.63;4681354;30;20108;-59
2022/01/20 01:32:28;;;;;;;6.03;4.20;;;;;;;-2.28;74.08;98029.31;4667485;30;20050;-59
2022/01/20 01:34:54;;;;;;;8.38;4.57;;;;;;;-2.27;73.88;98030.91;4682329;30;20060;-58
2022/01/20 01:39:59;;;;;;;9.25;4.82;;;;;;;-2.44;74.36;98032.16;4681129;30;20054;-59
2022/01/20 01:42:33;;;;;;;9.13;5.25;;;;;;;-2.47;74.92;98010.00;4681031;30;20514;-59
2022/01/20 01:45:11;;;;;;;7.70;4.70;;;;;;;-2.44;74.75;98004.44;4681198;30;20061;-58
2022/01/20 01:47:36;;;;;;;8.95;5.03;;;;;;;-2.35;74.49;98007.72;4680984;30;20065;-58
2022/01/20 01:50:04;;;;;;;10.43;5.10;;;;;;;-2.33;74.67;98010.91;4682035;30;20049;-58
2022/01/20 01:52:30;;;;;;;8.95;4.97;;;;;;;-2.25;74.15;98008.16;4680991;30;20065;-59
2022/01/20 01:54:56;;;;;;;9.32;5.40;;;;;;;-2.16;74.30;98014.00;4680572;30;20062;-58
2022/01/20 01:57:25;;;;;;;9.10;4.63;;;;;;;-2.08;73.50;98004.28;4681856;30;20509;-58
2022/01/20 01:59:52;;;;;;;9.40;5.05;;;;;;;-2.06;73.61;97996.28;4680873;30;20589;-58
2022/01/20 02:02:24;;;;;;;7.65;4.80;;;;;;;-2.18;73.71;97988.22;4682250;30;20142;-58
2022/01/20 02:04:51;;;;;;;10.23;4.68;;;;;;;-2.13;73.75;97991.06;4681107;30;20499;-58
2022/01/20 02:18:50;;;;;;;7.45;4.72;;;;;;;-2.27;74.13;97976.41;4680538;30;20049;-58
2022/01/20 02:21:43;;;;;;;7.05;4.07;;;;;;;-2.34;74.41;97970.38;4681921;30;20108;-60
2022/01/20 02:24:09;;;;;;;10.45;5.07;;;;;;;-2.38;75.10;97966.53;4680381;30;20061;-59
2022/01/20 02:26:35;;;;;;;9.15;5.00;;;;;;;-2.26;74.49;97972.00;4680447;30;20085;-59
2022/01/20 02:29:01;;;;;;;9.77;5.32;;;;;;;-2.39;74.99;97950.16;4680530;30;20182;-57
2022/01/20 02:31:28;;;;;;;9.23;4.57;;;;;;;-2.45;75.29;97950.13;4680325;30;20053;-59
2022/01/20 02:33:54;;;;;;;9.00;5.35;;;;;;;-2.48;75.78;97940.13;4680181;30;20119;-58
2022/01/20 02:36:22;;;;;;;10.40;5.85;;;;;;;-2.54;75.42;97939.88;4680462;30;20049;-58
2022/01/20 02:38:57;;;;;;;13.30;5.88;;;;;;;-2.55;75.59;97935.69;4651692;30;20513;-59
2022/01/20 02:46:52;;;;;;;9.73;5.00;;;;;;;-2.22;75.29;97932.50;4680293;30;20223;-57
2022/01/20 02:49:18;;;;;;;11.13;5.50;;;;;;;-2.19;74.99;97934.72;4681322;30;20054;-61
2022/01/20 02:51:49;;;;;;;12.88;5.95;;;;;;;-2.22;75.18;97914.34;4665854;30;20506;-58
2022/01/20 02:54:15;;;;;;;11.07;5.95;;;;;;;-2.29;75.18;97929.88;4679691;30;20136;-61
2022/01/20 02:56:41;;;;;;;17.45;6.22;;;;;;;-2.29;75.23;97921.28;4680041;30;20149;-59
2022/01/20 02:59:06;;;;;;;12.55;6.10;;;;;;;-2.13;75.09;97938.34;4679848;30;20332;-59
2022/01/20 03:01:32;;;;;;;9.55;4.63;;;;;;;-2.07;74.89;97933.19;4679918;30;20061;-59
2022/01/20 03:04:00;;;;;;;12.48;5.22;;;;;;;-2.08;74.87;97941.19;4679850;30;20058;-60
2022/01/20 03:06:26;;;;;;;11.07;5.22;;;;;;;-2.20;75.60;97940.91;4679929;30;20055;-60
2022/01/20 03:08:52;;;;;;;11.88;5.85;;;;;;;-2.29;75.54;97936.88;4679878;30;20492;-59
2022/01/20 03:11:18;;;;;;;13.00;5.90;;;;;;;-2.31;76.16;97936.25;4679972;30;20065;-60
2022/01/20 03:13:44;;;;;;;12.10;6.30;;;;;;;-2.32;75.77;97935.44;4679862;30;20120;-57
2022/01/20 03:16:10;;;;;;;11.40;5.95;;;;;;;-2.26;75.70;97936.50;4679441;30;20140;-59
2022/01/20 03:18:35;;;;;;;10.77;5.40;;;;;;;-2.24;76.09;97942.28;4679900;30;20532;-58
2022/01/20 03:21:01;;;;;;;11.85;5.75;;;;;;;-2.11;76.06;97944.16;4679911;30;20059;-58
2022/01/20 03:23:27;;;;;;;12.82;5.78;;;;;;;-2.13;75.37;97944.34;4681313;30;20525;-58
2022/01/20 03:25:53;;;;;;;13.20;6.30;;;;;;;-2.25;75.95;97932.88;4679913;30;20090;-58
2022/01/20 03:28:20;;;;;;;10.30;5.70;;;;;;;-2.16;75.95;97934.34;4679912;30;20418;-58
2022/01/20 03:30:48;;;;;;;10.95;5.75;;;;;;;-2.10;76.01;97922.38;4680072;30;20181;-58
2022/01/20 03:33:14;;;;;;;10.88;5.40;;;;;;;-2.08;75.43;97918.59;4679756;30;20267;-59
2022/01/20 03:35:41;;;;;;;11.13;5.55;;;;;;;-2.21;75.99;97907.34;4679716;30;20149;-59
2022/01/20 03:38:27;;;;;;;13.05;5.93;;;;;;;-2.14;75.47;97910.78;4671180;30;20402;-57
2022/01/20 03:40:55;;;;;;;9.48;4.78;;;;;;;-2.18;75.80;97906.97;4662413;30;20056;-57
2022/01/20 03:43:21;;;;;;;12.73;5.20;;;;;;;-2.25;76.00;97906.13;4662564;30;20058;-58
2022/01/20 03:45:50;;;;;;;12.45;5.43;;;;;;;-2.18;75.83;97897.38;4670425;30;20046;-59
2022/01/20 03:48:17;;;;;;;8.60;4.55;;;;;;;-2.16;75.43;97900.59;4684423;30;20056;-58
2022/01/20 03:50:59;;;;;;;10.13;5.78;;;;;;;-2.17;75.43;97909.38;4682903;30;20129;-59
2022/01/20 03:53:28;;;;;;;10.50;5.15;;;;;;;-2.23;75.94;97904.97;4683003;30;20058;-59
2022/01/20 03:55:56;;;;;;;12.02;5.07;;;;;;;-2.24;75.85;97905.13;4683047;30;20475;-59
2022/01/20 03:58:22;;;;;;;9.80;5.38;;;;;;;-2.29;75.71;97908.31;4682412;30;20502;-59
2022/01/20 04:00:48;;;;;;;12.25;5.72;;;;;;;-2.22;75.94;97905.75;4683195;30;20112;-59
2022/01/20 04:03:34;;;;;;;10.38;4.95;;;;;;;-2.20;75.37;97901.19;4682820;30;20066;-59
2022/01/20 04:06:12;;;;;;;9.52;5.32;;;;;;;-2.13;75.60;97891.63;4682528;30;20093;-58
2022/01/20 04:08:42;;;;;;;9.15;4.95;;;;;;;-1.99;75.04;97884.69;4654472;30;20052;-59
2022/01/20 04:11:17;;;;;;;14.13;5.18;;;;;;;-1.98;75.08;97881.09;4682430;30;20054;-59
2022/01/20 04:13:43;;;;;;;12.05;5.63;;;;;;;-1.98;75.36;97881.88;4667791;30;20206;-59
2022/01/20 04:16:32;;;;;;;11.43;5.97;;;;;;;-2.14;75.12;97874.44;4682485;30;20132;-58
2022/01/20 04:18:59;;;;;;;13.95;5.60;;;;;;;-2.04;75.18;97866.28;4682504;30;20593;-59
2022/01/20 04:21:28;;;;;;;9.65;5.20;;;;;;;-2.03;75.23;97863.50;4682147;30;20053;-58
2022/01/20 04:23:54;;;;;;;9.73;4.90;;;;;;;-2.10;75.40;97870.47;4682422;30;20073;-58
2022/01/20 04:26:22;;;;;;;9.68;4.90;;;;;;;-2.03;75.70;97870.47;4681936;30;20069;-59
2022/01/20 04:28:53;;;;;;;11.85;5.50;;;;;;;-2.01;75.41;97853.72;4682064;30;20536;-58
2022/01/20 04:31:27;;;;;;;9.07;5.38;;;;;;;-2.09;75.45;97872.06;4682278;30;20179;-60
2022/01/20 04:33:56;;;;;;;12.30;5.40;;;;;;;-2.07;75.57;97872.66;4682172;30;20057;-59
2022/01/20 04:36:26;;;;;;;10.52;5.35;;;;;;;-2.09;75.20;97866.84;4682006;30;20112;-57
2022/01/20 04:38:52;;;;;;;14.73;5.35;;;;;;;-2.16;75.37;97872.03;4681698;30;20433;-59
2022/01/20 04:41:20;;;;;;;10.18;4.88;;;;;;;-2.09;75.45;97861.66;4681900;30;20058;-59
2022/01/20 04:43:46;;;;;;;13.23;5.75;;;;;;;-2.23;75.65;97845.25;4667605;30;20050;-58
2022/01/20 04:46:25;;;;;;;11.65;5.20;;;;;;;-2.07;75.59;97850.09;4667701;30;20050;-59
2022/01/20 04:49:13;;;;;;;10.88;5.63;;;;;;;-2.03;74.97;97849.72;4683144;30;20054;-58
2022/01/20 04:59:41;;;;;;;14.75;5.55;;;;;;;-1.86;74.80;97840.59;4681564;30;20054;-58
2022/01/20 05:02:07;;;;;;;9.55;4.88;;;;;;;-1.86;74.46;97840.59;4683153;30;20088;-58
2022/01/20 05:04:53;;;;;;;10.55;5.18;;;;;;;-1.88;74.80;97840.78;4683058;30;20069;-60
2022/01/20 05:07:37;;;;;;;8.10;4.10;;;;;;;-1.93;74.19;97842.38;4682113;30;20093;-59
2022/01/20 05:10:11;;;;;;;7.95;5.18;;;;;;;-2.12;74.99;97838.69;4681491;30;20144;-58
2022/01/20 05:15:20;;;;;;;8.43;5.07;;;;;;;-2.19;74.75;97849.06;4678727;30;20058;-55
2022/01/20 05:17:47;;;;;;;7.85;4.72;;;;;;;-2.19;75.45;97849.06;4674879;30;20464;-58
2022/01/20 05:20:13;;;;;;;10.73;5.22;;;;;;;-2.12;75.27;97851.66;4664599;30;20058;-58
2022/01/20 05:22:38;;;;;;;12.10;5.60;;;;;;;-2.12;74.94;97852.50;4679221;30;20148;-56
2022/01/20 05:25:07;;;;;;;10.07;5.07;;;;;;;-2.16;75.20;97853.06;4678227;30;20075;-58
2022/01/20 05:27:33;;;;;;;10.85;5.40;;;;;;;-1.95;75.15;97849.53;4665415;30;20152;-55
2022/01/20 05:29:59;;;;;;;9.50;4.78;;;;;;;-1.98;74.68;97842.16;4679648;30;20588;-58
2022/01/20 05:32:27;;;;;;;11.45;5.88;;;;;;;-1.93;74.69;97837.97;4680131;30;20054;-56
2022/01/20 05:34:53;;;;;;;10.43;5.07;;;;;;;-1.91;74.51;97835.16;4679536;30;20513;-57
2022/01/20 05:37:19;;;;;;;8.98;4.70;;;;;;;-1.91;74.71;97824.78;4678922;30;20133;-58
2022/01/20 05:39:46;;;;;;;9.60;4.90;;;;;;;-1.98;75.01;97821.38;4678655;30;20058;-58
2022/01/20 05:42:16;;;;;;;9.60;5.22;;;;;;;-1.98;75.22;97831.75;4675955;30;20057;-59
2022/01/20 05:44:51;;;;;;;12.75;5.82;;;;;;;-1.99;74.59;97841.34;4663239;30;20137;-58
2022/01/20 05:47:26;;;;;;;11.35;5.50;;;;;;;-1.97;74.95;97830.75;4676062;30;20132;-59
2022/01/20 05:50:20;;;;;;;11.40;4.90;;;;;;;-1.94;74.78;97831.19;4673216;30;20110;-58
2022/01/20 05:52:47;;;;;;;12.05;4.93;;;;;;;-1.89;74.80;97836.56;4676858;30;20054;-61
2022/01/20 05:55:18;;;;;;;9.50;5.30;;;;;;;-1.86;74.42;97830.19;4674929;30;20186;-59
2022/01/20 05:57:46;;;;;;;10.68;4.47;;;;;;;-1.87;74.34;97828.59;4676684;30;20046;-58
2022/01/20 06:00:23;;;;;;;9.82;5.15;;;;;;;-1.90;74.27;97823.78;4676980;30;20061;-57
2022/01/20 06:05:40;;;;;;;11.57;5.68;;;;;;;-1.90;74.74;97822.00;4646509;30;20553;-58
2022/01/20 06:08:08;;;;;;;10.25;5.32;;;;;;;-1.96;74.78;97825.38;4672148;30;20475;-56
2022/01/20 06:10:37;;;;;;;11.02;5.80;;;;;;;-2.00;74.81;97816.38;4657903;30;20527;-56
2022/01/20 06:13:12;;;;;;;10.27;5.25;;;;;;;-1.97;75.22;97817.75;4646755;30;20058;-59
2022/01/20 06:15:38;;;;;;;11.15;5.18;;;;;;;-1.83;74.69;97812.41;4651940;30;20049;-59
2022/01/20 06:18:04;;;;;;;9.88;5.50;;;;;;;-1.72;74.06;97805.06;4665868;30;20049;-57
2022/01/20 06:20:31;;;;;;;14.45;5.97;;;;;;;-1.74;73.94;97802.63;4665510;30;20061;-58
2022/01/20 06:22:58;;;;;;;13.82;6.45;;;;;;;-1.73;74.48;97800.88;4676078;30;20448;-59
2022/01/20 06:25:23;;;;;;;12.40;6.07;;;;;;;-1.68;74.46;97798.44;4675959;30;20053;-59
2022/01/20 06:27:50;;;;;;;9.73;5.85;;;;;;;-1.66;74.63;97804.25;4677382;30;20474;-59
2022/01/20 06:30:16;;;;;;;15.43;7.38;;;;;;;-1.69;74.28;97800.25;4677432;30;20128;-58
2022/01/20 06:32:43;;;;;;;14.98;7.03;;;;;;;-1.67;74.60;97794.88;4676380;30;20129;-57
2022/01/20 06:35:15;;;;;;;14.00;6.88;;;;;;;-1.64;74.00;97797.88;4677699;30;20058;-58
2022/01/20 06:37:41;;;;;;;13.13;6.90;;;;;;;-1.66;74.07;97794.66;4678055;30;20069;-57
2022/01/20 06:40:08;;;;;;;16.02;6.80;;;;;;;-1.75;74.25;97801.06;4689494;30;20678;-59
2022/01/20 06:42:37;;;;;;;18.65;6.90;;;;;;;-1.78;74.39;97798.06;4676396;30;20654;-58
2022/01/20 06:45:06;;;;;;;18.92;7.05;;;;;;;-1.82;75.01;97802.84;4661529;30;20050;-59
2022/01/20 06:47:32;;;;;;;18.63;7.60;;;;;;;-1.80;74.76;97806.03;4673685;30;20085;-57
2022/01/20 06:50:00;;;;;;;13.35;7.18;;;;;;;-1.68;73.98;97799.25;4662014;30;20548;-59
2022/01/20 06:52:28;;;;;;;13.93;6.68;;;;;;;-1.62;74.12;97797.66;4660485;30;20042;-59
2022/01/20 06:54:54;;;;;;;12.48;6.60;;;;;;;-1.61;74.04;97801.88;4676934;30;20058;-61
2022/01/20 06:57:20;;;;;;;13.85;6.70;;;;;;;-1.64;74.13;97803.06;4661349;30;20056;-60
2022/01/20 06:59:46;;;;;;;16.20;7.15;;;;;;;-1.65;73.97;97804.09;4662542;30;20062;-59
2022/01/20 07:02:12;;;;;;;14.50;7.10;;;;;;;-1.64;73.83;97802.28;4673550;30;20133;-57
2022/01/20 07:04:38;;;;;;;14.88;7.20;;;;;;;-1.56;73.87;97796.88;4657342;30;20574;-56
2022/01/20 07:07:05;;;;;;;16.52;7.60;;;;;;;-1.54;73.37;97796.69;4676172;30;20050;-58
2022/01/20 07:09:43;;;;;;;13.98;6.80;;;;;;;-1.59;73.68;97802.47;4677072;30;20042;-58
2022/01/20 07:12:17;;;;;;;22.23;7.68;;;;;;;-1.66;73.87;97805.06;4679175;30;20505;-57
2022/01/20 07:14:43;;;;;;;15.82;7.95;;;;;;;-1.68;73.64;97793.25;4665266;30;20362;-57
2022/01/20 07:17:10;;;;;;;17.67;7.35;;;;;;;-1.54;73.63;97800.06;4678132;30;20485;-58
2022/01/20 07:19:40;;;;;;;16.92;7.90;;;;;;;-1.54;73.28;97799.28;4677924;30;20053;-57
2022/01/20 07:22:08;;;;;;;15.40;7.22;;;;;;;-1.51;73.21;97796.28;4678180;30;20061;-57
2022/01/20 07:24:34;;;;;;;17.77;7.80;;;;;;;-1.47;73.04;97795.69;4664887;30;20054;-59
2022/01/20 07:27:09;;;;;;;16.90;7.22;;;;;;;-1.48;72.82;97786.28;4682627;30;20537;-60
2022/01/20 07:29:37;;;;;;;17.98;7.57;;;;;;;-1.45;73.03;97782.50;4681923;30;20437;-59
2022/01/20 07:32:06;;;;;;;19.13;7.65;;;;;;;-1.39;72.85;97773.91;4681348;30;20046;-61
2022/01/20 07:34:33;;;;;;;16.17;7.47;;;;;;;-1.33;72.66;97780.88;4683718;30;20053;-61
2022/01/20 07:37:00;;;;;;;15.85;7.03;;;;;;;-1.43;72.86;97770.91;4683087;30;20042;-57
2022/01/20 07:39:27;;;;;;;16.42;8.18;;;;;;;-1.46;72.90;97771.31;4680313;30;20123;-60
2022/01/20 07:41:53;;;;;;;17.40;7.13;;;;;;;-1.32;72.96;97777.31;4666357;30;20406;-59
2022/01/20 07:44:42;;;;;;;17.48;8.13;;;;;;;-1.30;72.55;97779.69;4667931;30;20062;-61
2022/01/20 07:47:35;;;;;;;17.90;7.82;;;;;;;-1.34;72.72;97763.69;4680509;30;20148;-61
2022/01/20 07:50:02;;;;;;;17.02;7.50;;;;;;;-1.26;72.48;97753.09;4668232;30;20103;-61
2022/01/20 07:52:29;;;;;;;15.18;8.20;;;;;;;-1.17;72.03;97756.31;4681741;30;20520;-58
2022/01/20 07:54:55;;;;;;;18.08;8.15;;;;;;;-1.31;72.27;97760.69;4680907;30;20554;-60
2022/01/20 07:57:21;;;;;;;18.90;8.50;;;;;;;-1.25;72.78;97754.69;4680336;30;20058;-57
2022/01/20 07:59:47;;;;;;;15.18;7.72;;;;;;;-1.16;72.08;97766.47;4681809;30;20136;-60
2022/01/20 08:02:16;;;;;;;17.63;8.35;;;;;;;-1.36;72.36;97768.28;4665986;30;20053;-58
2022/01/20 08:04:42;;;;;;;17.45;8.20;;;;;;;-1.17;72.39;97764.91;4681379;30;20049;-58
2022/01/20 08:07:10;;;;;;;17.45;7.85;;;;;;;-1.21;72.38;97760.28;4681426;30;20054;-60
2022/01/20 08:09:38;;;;;;;15.85;7.30;;;;;;;-1.30;72.17;97757.09;4679938;30;20569;-59
2022/01/20 08:12:07;;;;;;;17.13;8.20;;;;;;;-1.28;72.96;97762.91;4680771;30;20081;-59
2022/01/20 08:14:52;;;;;;;19.50;8.13;;;;;;;-1.41;73.36;97770.72;4680390;30;20068;-58
2022/01/20 08:17:29;;;;;;;17.05;7.80;;;;;;;-1.38;72.78;97755.50;4665840;30;20050;-59
2022/01/20 08:19:55;;;;;;;15.23;7.28;;;;;;;-1.28;72.64;97778.50;4666390;30;20072;-57
2022/01/20 08:22:21;;;;;;;16.80;8.35;;;;;;;-1.19;72.34;97764.28;4650600;30;20585;-59
2022/01/20 08:24:52;;;;;;;17.88;8.32;;;;;;;-1.15;72.11;97762.91;4662329;30;20060;-60
2022/01/20 08:27:18;;;;;;;;;;;;;;;-1.12;71.98;97764.28;4678236;30;20060;-60
2022/01/20 08:29:45;;;;;;;17.77;7.88;;;;;;;-1.11;72.10;97758.09;4681177;30;19938;-59
2022/01/20 08:32:12;;;;;;;16.88;7.97;;;;;;;-1.20;72.65;97759.31;4680039;30;20083;-59
2022/01/20 08:34:52;;;;;;;22.98;9.18;;;;;;;-1.04;71.86;97760.66;4679655;30;20081;-59
2022/01/20 08:37:40;;;;;;;23.55;7.93;;;;;;;-1.10;72.30;97732.88;4680233;30;20073;-61
2022/01/20 08:40:14;;;;;;;18.77;8.63;;;;;;;-0.95;71.92;97733.44;4665497;30;20062;-62
2022/01/20 08:42:41;;;;;;;18.00;8.05;;;;;;;-1.07;71.72;97722.88;4666979;30;20660;-63
2022/01/20 08:45:09;;;;;;;19.75;9.10;;;;;;;-1.03;72.52;97725.84;4680630;30;20137;-61
2022/01/20 08:47:35;;;;;;;19.50;8.82;;;;;;;-0.94;71.51;97725.44;4678821;30;20050;-61
2022/01/20 08:50:05;;;;;;;19.33;8.75;;;;;;;-1.07;71.93;97712.47;4665999;30;20425;-61
2022/01/20 08:52:33;;;;;;;20.95;10.10;;;;;;;-1.09;72.52;97706.66;4649580;30;20050;-60
2022/01/20 08:55:00;;;;;;;20.67;11.75;;;;;;;-1.02;72.03;97701.47;4651242;30;20060;-60
2022/01/20 08:57:53;;;;;;;19.45;9.85;;;;;;;-1.01;71.85;97684.84;4668242;30;20597;-60
2022/01/20 09:00:20;;;;;;;22.73;8.73;;;;;;;-1.13;72.12;97700.28;4680604;30;20552;-59
2022/01/20 09:03:12;;;;;;;23.23;8.52;;;;;;;-1.03;72.30;97692.03;4680413;30;20062;-57
2022/01/20 09:05:39;;;;;;;19.55;9.90;;;;;;;-0.96;72.03;97683.22;4679608;30;20057;-60
2022/01/20 09:08:09;;;;;;;24.27;10.55;;;;;;;-1.01;71.94;97685.63;4664283;30;20056;-60
2022/01/20 09:10:39;;;;;;;22.60;9.57;;;;;;;-1.01;72.24;97682.25;4679581;30;20088;-60
2022/01/20 09:15:55;;;;;;;20.05;9.02;;;;;;;-1.20;72.59;97670.91;4679424;30;20046;-59
2022/01/20 09:18:35;;;;;;;23.35;9.30;;;;;;;-1.15;72.79;97676.28;4665028;30;20054;-60
2022/01/20 09:21:00;;;;;;;20.17;10.13;;;;;;;-1.10;72.73;97667.88;4678334;30;20065;-58
2022/01/20 09:23:28;;;;;;;24.77;9.93;;;;;;;-1.04;72.63;97661.84;4678928;30;20050;-61
2022/01/20 09:25:55;;;;;;;26.08;9.95;;;;;;;-1.01;72.47;97653.63;4666745;30;20560;-60
2022/01/20 09:28:24;;;;;;;21.23;9.50;;;;;;;-1.05;73.11;97655.84;4678911;30;20135;-62
2022/01/20 09:30:50;;;;;;;21.98;8.95;;;;;;;-0.94;72.41;97652.63;4678533;30;20073;-59
2022/01/20 09:33:26;;;;;;;17.85;8.30;;;;;;;-0.88;72.10;97664.00;4679507;30;20076;-59
2022/01/20 09:35:52;;;;;;;22.77;8.90;;;;;;;-1.00;72.08;97658.66;4679718;30;20452;-61
2022/01/20 09:38:18;;;;;;;22.75;9.20;;;;;;;-0.91;72.52;97651.41;4678423;30;20081;-60
2022/01/20 09:40:44;;;;;;;21.30;9.35;;;;;;;-0.87;72.36;97655.19;4677553;30;20050;-60
2022/01/20 09:43:14;;;;;;;16.27;8.57;;;;;;;-0.92;72.22;97649.78;4676782;30;20046;-61
2022/01/20 09:45:40;;;;;;;21.77;9.13;;;;;;;-0.99;72.28;97641.22;4677592;30;20061;-59
2022/01/20 09:48:07;;;;;;;21.63;9.32;;;;;;;-1.02;72.87;97636.44;4664209;30;20531;-59
2022/01/20 09:51:00;;;;;;;19.23;9.40;;;;;;;-0.98;72.20;97622.81;4650098;30;20070;-60
2022/01/20 09:53:44;;;;;;;18.73;8.93;;;;;;;-0.93;71.96;97638.59;4660862;30;20134;-61
2022/01/20 09:56:34;;;;;;;17.63;8.98;;;;;;;-0.83;71.89;97640.75;4654765;30;20486;-60
2022/01/20 09:59:00;;;;;;;22.75;10.80;;;;;;;-0.81;72.20;97649.16;4661620;30;20587;-60
2022/01/20 10:01:36;;;;;;;22.27;9.98;;;;;;;-0.64;71.21;97643.50;4647978;30;20070;-60
2022/01/20 10:04:03;;;;;;;28.77;10.23;;;;;;;-0.70;71.49;97640.69;4659839;30;20109;-62
2022/01/20 10:06:29;;;;;;;17.77;8.70;;;;;;;-0.84;71.68;97641.78;4659320;30;20050;-61
2022/01/20 10:09:26;;;;;;;18.52;9.00;;;;;;;-0.81;71.50;97654.34;4664541;30;20120;-59
2022/01/20 10:11:56;;;;;;;20.02;8.73;;;;;;;-0.76;71.65;97644.13;4675678;30;20042;-59
2022/01/20 10:14:46;;;;;;;19.88;9.73;;;;;;;-0.71;70.91;97648.69;4662525;30;20069;-57
2022/01/20 10:17:36;;;;;;;16.90;8.75;;;;;;;-0.62;70.44;97642.25;4649970;30;20270;-60
2022/01/20 10:20:08;;;;;;;25.15;8.82;;;;;;;-0.64;71.07;97627.88;4611803;30;20058;-58
2022/01/20 10:22:42;;;;;;;24.10;9.80;;;;;;;-0.69;70.94;97633.69;4644008;30;20089;-59
2022/01/20 10:25:35;;;;;;;19.63;9.07;;;;;;;-0.86;71.37;97624.75;4627919;30;20076;-60
2022/01/20 10:28:08;;;;;;;18.75;9.38;;;;;;;-0.72;71.51;97619.28;4644953;30;20070;-59
2022/01/20 10:30:36;;;;;;;15.80;7.68;;;;;;;-0.87;71.20;97615.38;4631687;30;20340;-58
2022/01/20 10:33:02;;;;;;;19.65;9.23;;;;;;;-0.86;71.74;97627.38;4629252;30;20054;-58
2022/01/20 10:35:38;;;;;;;23.63;8.82;;;;;;;-0.94;72.17;97610.22;4644864;30;20081;-60
2022/01/20 10:38:14;;;;;;;19.13;9.63;;;;;;;-0.78;71.48;97611.53;4630155;30;20065;-59
2022/01/20 10:41:00;;;;;;;19.65;8.68;;;;;;;-0.77;71.22;97608.69;4658002;30;20102;-59
2022/01/20 10:43:33;;;;;;;16.10;8.43;;;;;;;-0.92;71.98;97608.19;4643950;30;20061;-60
2022/01/20 10:46:08;;;;;;;18.17;9.10;;;;;;;-1.02;72.12;97611.22;4627574;30;20054;-59
2022/01/20 10:48:35;;;;;;;17.58;9.23;;;;;;;-1.06;72.25;97601.44;4662734;30;20062;-60
2022/01/20 10:51:15;;;;;;;20.73;8.82;;;;;;;-0.78;71.61;97614.13;4676499;30;20057;-60
2022/01/20 10:53:42;;;;;;;17.67;9.20;;;;;;;-0.83;71.37;97617.34;4646876;30;20056;-58
2022/01/20 10:56:15;;;;;;;18.42;8.60;;;;;;;-0.76;71.50;97623.31;4680003;30;20293;-58
2022/01/20 10:58:41;;;;;;;17.98;9.70;;;;;;;-0.84;71.58;97614.97;4658620;30;20058;-59
2022/01/20 11:01:16;;;;;;;18.13;9.38;;;;;;;-0.83;71.38;97612.13;4676378;30;20069;-61
2022/01/20 11:03:43;;;;;;;19.63;9.32;;;;;;;-0.83;71.81;97624.34;4675592;30;20053;-58
2022/01/20 11:06:09;;;;;;;22.50;9.05;;;;;;;-0.81;71.63;97623.16;4675911;30;20050;-58
2022/01/20 11:08:41;;;;;;;18.83;8.95;;;;;;;-0.90;71.65;97606.19;4677045;30;20065;-58
2022/01/20 11:11:08;;;;;;;15.32;7.82;;;;;;;-0.93;71.81;97615.19;4675589;30;20437;-59
2022/01/20 11:13:45;;;;;;;20.02;8.75;;;;;;;-1.12;72.18;97616.06;4673913;30;20061;-57
2022/01/20 11:16:12;;;;;;;13.80;8.00;;;;;;;-1.08;72.27;97608.66;4661348;30;20058;-61
2022/01/20 11:18:42;;;;;;;12.85;7.00;;;;;;;-1.23;72.69;97596.72;4662074;30;20486;-59
2022/01/20 11:21:08;;;;;;;18.48;8.00;;;;;;;-1.16;72.63;97599.28;4677746;30;20064;-61
2022/01/20 11:23:41;;;;;;;13.65;7.53;;;;;;;-1.19;72.68;97600.50;4651686;30;20053;-59
2022/01/20 11:26:34;;;;;;;16.52;8.00;;;;;;;-1.38;72.80;97601.38;4673598;30;20070;-60
2022/01/20 11:29:20;;;;;;;16.55;7.65;;;;;;;-1.31;73.29;97601.34;4678780;30;20530;-59
2022/01/20 11:31:47;;;;;;;16.70;8.27;;;;;;;-1.27;73.12;97605.13;4680245;30;20054;-58
2022/01/20 11:34:26;;;;;;;16.80;8.07;;;;;;;-1.11;72.88;97603.88;4677201;30;20619;-61
2022/01/20 11:36:52;;;;;;;16.02;8.07;;;;;;;-1.02;72.55;97603.44;4678847;30;20584;-63
2022/01/20 11:39:19;;;;;;;15.25;7.70;;;;;;;-0.95;72.04;97606.78;4679572;30;20069;-59
2022/01/20 11:41:48;;;;;;;15.43;8.43;;;;;;;-1.00;72.35;97590.19;4679136;30;20054;-59
2022/01/20 11:44:18;;;;;;;17.33;7.88;;;;;;;-0.93;72.32;97598.78;4664724;30;20053;-61
2022/01/20 11:46:46;;;;;;;16.03;7.47;;;;;;;-0.82;71.97;97597.34;4679774;30;20509;-60
2022/01/20 11:49:17;;;;;;;15.95;8.05;;;;;;;-0.76;71.44;97586.09;4677990;30;20476;-60
2022/01/20 11:51:59;;;;;;;12.55;7.43;;;;;;;-0.84;71.92;97592.34;4680156;30;20062;-61
2022/01/20 11:54:29;;;;;;;15.77;8.55;;;;;;;-0.85;71.90;97595.13;4679326;30;20394;-60
2022/01/20 11:57:14;;;;;;;14.75;7.68;;;;;;;-0.89;72.40;97591.38;4679432;30;20116;-61
2022/01/20 11:59:42;;;;;;;15.23;6.88;;;;;;;-0.85;72.41;97590.75;4680076;30;20049;-59
2022/01/20 12:02:08;;;;;;;18.40;7.45;;;;;;;-0.93;72.81;97593.59;4679718;30;20061;-60
2022/01/20 12:04:36;;;;;;;16.17;8.43;;;;;;;-1.06;72.98;97589.25;4677130;30;20058;-61
2022/01/20 12:07:10;;;;;;;12.70;6.80;;;;;;;-0.95;72.84;97585.97;4663713;30;20133;-60
2022/01/20 12:09:38;;;;;;;15.23;8.23;;;;;;;-0.87;72.59;97589.38;4681545;30;20053;-59
2022/01/20 12:12:07;;;;;;;16.67;7.75;;;;;;;-0.98;72.98;97578.59;4682916;30;20061;-59
2022/01/20 12:14:38;;;;;;;13.77;7.65;;;;;;;-0.93;72.77;97581.38;4667250;30;20050;-60
2022/01/20 12:17:07;;;;;;;13.82;7.53;;;;;;;-0.89;72.86;97576.56;4682918;30;20129;-61
2022/01/20 12:19:34;;;;;;;20.02;8.00;;;;;;;-0.86;72.83;97570.94;4679938;30;20126;-61
2022/01/20 12:22:02;;;;;;;17.05;8.20;;;;;;;-0.84;72.73;97563.72;4677712;30;20437;-59
2022/01/20 12:24:28;;;;;;;16.63;8.38;;;;;;;-0.79;72.47;97566.50;4679275;30;20050;-59
2022/01/20 12:26:54;;;;;;;18.73;8.93;;;;;;;-0.84;72.89;97574.13;4681858;30;20720;-60
2022/01/20 12:29:20;;;;;;;18.38;9.27;;;;;;;-0.82;73.08;97566.13;4684303;30;20054;-60
2022/01/20 12:31:54;;;;;;;18.00;8.82;;;;;;;-0.93;73.39;97554.56;4682781;30;20053;-59
2022/01/20 12:34:21;;;;;;;18.05;8.80;;;;;;;-1.06;74.10;97555.44;4681950;30;20053;-61
2022/01/20 12:36:54;;;;;;;16.67;8.60;;;;;;;-0.97;73.87;97559.41;4683123;30;20041;-60
2022/01/20 12:39:26;;;;;;;23.27;8.75;;;;;;;-1.02;74.12;97566.22;4682234;30;20066;-59
2022/01/20 12:42:07;;;;;;;16.27;8.05;;;;;;;-1.03;73.92;97562.84;4683633;30;20058;-60
2022/01/20 12:45:55;;;;;;;19.05;8.55;;;;;;;-1.09;74.19;97555.84;4672103;30;20077;-59
2022/01/20 12:47:32;;;;;;;18.58;9.15;;;;;;;-1.00;74.07;97559.00;4653053;30;20145;-59
2022/01/20 12:49:59;;;;;;;20.77;9.90;;;;;;;-1.12;74.45;97551.06;4665663;30;20077;-60
2022/01/20 12:52:26;;;;;;;18.17;8.85;;;;;;;-1.19;74.34;97542.50;4665929;30;20059;-59